Time;durP1;ratioP1;P1;durP2;ratioP2;P2;SDS_P1;SDS_P2;PMS_P1;PMS_P2;Temp;Humidity;BMP_temperature;BMP_pressure;BME280_temperature;BME280_humidity;BME280_pressure;Samples;Min_cycle;Max_cycle;Signal;HPM_P1;HPM_P2
2022/06/14 00:00:54;;;;;;;9.03;3.07;;;;;;;;;;5024384;28;88628;-75
2022/06/14 00:03:26;;;;;;;7.27;3.23;;;;;;;;;;5040077;28;89204;-74
2022/06/14 00:08:46;;;;;;;6.33;3.17;;;;;;;;;;5034500;28;88859;-77
2022/06/14 00:11:17;;;;;;;4.47;2.80;;;;;;;;;;5042118;27;88994;-75
2022/06/14 00:13:48;;;;;;;11.07;3.07;;;;;;;;;;5025894;28;90656;-75
2022/06/14 00:16:23;;;;;;;5.07;3.37;;;;;;;;;;5028022;27;89228;-75
2022/06/14 00:18:58;;;;;;;6.53;2.97;;;;;;;;;;5033898;27;88395;-76
2022/06/14 00:21:27;;;;;;;9.77;3.60;;;;;;;;;;5042255;27;88608;-76
2022/06/14 00:23:59;;;;;;;5.83;2.63;;;;;;;;;;5036395;27;89330;-76
2022/06/14 00:26:30;;;;;;;3.73;1.80;;;;;;;;;;5037844;28;89240;-76
2022/06/14 00:29:07;;;;;;;8.23;2.13;;;;;;;;;;5042475;27;88486;-76
2022/06/14 00:31:38;;;;;;;5.77;2.47;;;;;;;;;;5023993;28;88463;-76
2022/06/14 00:34:07;;;;;;;5.83;2.40;;;;;;;;;;5023977;28;92699;-76
2022/06/14 00:36:36;;;;;;;5.07;2.10;;;;;;;;;;5037747;27;93103;-75
2022/06/14 00:39:05;;;;;;;6.03;1.93;;;;;;;;;;5030405;27;88489;-75
2022/06/14 00:41:37;;;;;;;5.87;2.17;;;;;;;;;;5041356;28;88670;-75
2022/06/14 00:44:08;;;;;;;2.90;2.37;;;;;;;;;;5032729;27;89720;-75
2022/06/14 00:46:38;;;;;;;2.40;1.73;;;;;;;;;;5032870;28;88883;-75
2022/06/14 00:49:08;;;;;;;4.53;1.90;;;;;;;;;;5025757;28;88601;-75
2022/06/14 00:51:38;;;;;;;4.20;2.13;;;;;;;;;;5027673;27;88602;-75
2022/06/14 00:54:11;;;;;;;3.73;1.70;;;;;;;;;;5041400;27;89926;-75
2022/06/14 00:56:42;;;;;;;3.80;2.27;;;;;;;;;;5021849;27;90351;-75
2022/06/14 00:59:14;;;;;;;4.97;1.93;;;;;;;;;;5022248;28;88511;-75
2022/06/14 01:01:43;;;;;;;1.87;1.40;;;;;;;;;;5021383;28;88600;-75
2022/06/14 01:04:15;;;;;;;2.27;1.47;;;;;;;;;;5022599;28;89557;-75
2022/06/14 01:06:46;;;;;;;2.23;1.73;;;;;;;;;;5039715;27;88860;-75
2022/06/14 01:09:17;;;;;;;5.87;1.80;;;;;;;;;;5040989;27;88470;-75
2022/06/14 01:11:46;;;;;;;4.90;2.47;;;;;;;;;;5037695;27;88505;-75
2022/06/14 01:14:18;;;;;;;4.70;1.93;;;;;;;;;;5036933;27;89273;-75
2022/06/14 01:16:48;;;;;;;3.43;1.93;;;;;;;;;;5021575;28;89960;-75
2022/06/14 01:19:21;;;;;;;4.80;1.57;;;;;;;;;;5022497;28;88410;-74
2022/06/14 01:22:04;;;;;;;4.90;1.70;;;;;;;;;;5039130;27;88662;-75
2022/06/14 01:24:34;;;;;;;4.67;1.80;;;;;;;;;;5036187;27;89286;-75
2022/06/14 01:27:04;;;;;;;4.53;2.50;;;;;;;;;;5028486;28;88977;-75
2022/06/14 01:29:38;;;;;;;2.67;1.43;;;;;;;;;;5024148;27;88267;-75
2022/06/14 01:32:07;;;;;;;4.13;1.87;;;;;;;;;;5022114;28;88636;-76
2022/06/14 01:34:39;;;;;;;3.60;1.93;;;;;;;;;;5027280;28;90755;-75
2022/06/14 01:40:00;;;;;;;2.90;2.27;;;;;;;;;;5040299;27;88413;-75
2022/06/14 01:42:39;;;;;;;6.60;1.40;;;;;;;;;;5034759;27;88370;-75
2022/06/14 01:45:10;;;;;;;1.93;1.20;;;;;;;;;;5031016;28;89890;-75
2022/06/14 01:47:43;;;;;;;2.53;1.67;;;;;;;;;;5033595;27;88672;-76
2022/06/14 01:53:14;;;;;;;2.00;1.07;;;;;;;;;;5019234;28;88645;-75
2022/06/14 01:55:49;;;;;;;2.03;1.40;;;;;;;;;;5034872;28;89499;-75
2022/06/14 01:58:26;;;;;;;4.00;1.80;;;;;;;;;;5039210;27;90611;-74
2022/06/14 02:00:59;;;;;;;1.03;1.00;;;;;;;;;;5040911;27;88421;-75
2022/06/14 02:06:30;;;;;;;1.77;1.30;;;;;;;;;;5023654;28;89825;-75
2022/06/14 02:09:04;;;;;;;3.40;0.93;;;;;;;;;;5006320;28;88707;-74
2022/06/14 02:11:37;;;;;;;1.77;1.57;;;;;;;;;;5021608;28;88242;-75
2022/06/14 02:14:17;;;;;;;1.67;1.00;;;;;;;;;;5039576;28;88482;-75
2022/06/14 02:16:54;;;;;;;3.13;1.60;;;;;;;;;;5020580;28;90526;-75
2022/06/14 02:19:38;;;;;;;2.13;1.10;;;;;;;;;;5040073;28;88736;-76
2022/06/14 02:22:09;;;;;;;5.60;1.53;;;;;;;;;;5041193;27;88416;-76
2022/06/14 02:24:46;;;;;;;1.47;0.93;;;;;;;;;;5033269;27;88368;-75
2022/06/14 02:27:19;;;;;;;1.53;0.80;;;;;;;;;;5021389;28;93061;-75
2022/06/14 02:29:56;;;;;;;1.60;1.00;;;;;;;;;;5035215;28;89318;-75
2022/06/14 02:32:25;;;;;;;1.90;1.30;;;;;;;;;;5040794;27;88468;-75
2022/06/14 02:35:03;;;;;;;1.57;0.97;;;;;;;;;;5029856;27;88501;-76
2022/06/14 02:37:34;;;;;;;3.47;1.00;;;;;;;;;;5024511;28;92078;-75
2022/06/14 02:40:11;;;;;;;3.60;1.40;;;;;;;;;;5040673;27;91778;-75
2022/06/14 02:42:43;;;;;;;4.07;1.00;;;;;;;;;;5039285;27;88240;-76
2022/06/14 02:45:14;;;;;;;2.80;1.27;;;;;;;;;;5026685;27;88614;-75
2022/06/14 02:47:44;;;;;;;1.80;1.13;;;;;;;;;;5032183;27;89689;-76
2022/06/14 02:50:15;;;;;;;1.70;1.10;;;;;;;;;;5040399;28;88831;-74
2022/06/14 02:52:44;;;;;;;2.50;1.03;;;;;;;;;;5051638;27;88428;-75
2022/06/14 02:55:18;;;;;;;1.43;0.80;;;;;;;;;;5031771;27;88464;-75
2022/06/14 02:57:52;;;;;;;2.13;1.47;;;;;;;;;;5024028;28;89313;-75
2022/06/14 03:00:22;;;;;;;2.53;0.90;;;;;;;;;;5030486;27;90368;-75
2022/06/14 03:02:51;;;;;;;1.27;0.80;;;;;;;;;;5037065;28;88487;-74
2022/06/14 03:05:29;;;;;;;2.63;0.97;;;;;;;;;;5038778;27;88587;-75
2022/06/14 03:07:59;;;;;;;3.20;1.33;;;;;;;;;;5045592;27;91593;-75
2022/06/14 03:10:33;;;;;;;4.03;2.43;;;;;;;;;;5054606;27;88900;-75
2022/06/14 03:13:05;;;;;;;6.83;3.83;;;;;;;;;;5053422;27;88527;-75
2022/06/14 03:15:47;;;;;;;6.27;3.20;;;;;;;;;;5046517;27;88281;-74
2022/06/14 03:18:23;;;;;;;4.20;2.20;;;;;;;;;;5037425;27;90194;-75
2022/06/14 03:20:53;;;;;;;6.13;2.97;;;;;;;;;;5038531;28;89413;-75
2022/06/14 03:23:25;;;;;;;6.73;3.07;;;;;;;;;;5038062;28;88507;-74
2022/06/14 03:26:09;;;;;;;3.47;2.47;;;;;;;;;;5020753;27;88389;-75
2022/06/14 03:28:47;;;;;;;3.90;2.47;;;;;;;;;;5030399;27;88671;-75
2022/06/14 03:31:17;;;;;;;4.03;2.47;;;;;;;;;;5044358;27;88890;-75
2022/06/14 03:33:47;;;;;;;6.83;3.33;;;;;;;;;;5043113;27;88365;-75
2022/06/14 03:36:19;;;;;;;7.37;4.30;;;;;;;;;;5041085;27;88662;-75
2022/06/14 03:38:57;;;;;;;8.07;3.37;;;;;;;;;;5049118;27;89881;-75
2022/06/14 03:41:34;;;;;;;8.17;3.77;;;;;;;;;;5062107;27;89056;-75
2022/06/14 03:44:05;;;;;;;6.80;4.03;;;;;;;;;;5038237;27;88386;-74
2022/06/14 03:46:39;;;;;;;10.03;4.30;;;;;;;;;;5041455;28;88485;-75
2022/06/14 03:49:13;;;;;;;6.13;3.60;;;;;;;;;;5027478;27;89531;-76
2022/06/14 03:51:55;;;;;;;10.33;4.67;;;;;;;;;;5037132;27;88964;-75
2022/06/14 03:54:38;;;;;;;7.30;4.77;;;;;;;;;;5036166;28;88799;-75
2022/06/14 03:57:13;;;;;;;7.90;4.23;;;;;;;;;;5043235;27;88651;-75
2022/06/14 03:59:57;;;;;;;10.17;5.13;;;;;;;;;;5043309;27;90104;-75
2022/06/14 04:02:53;;;;;;;8.10;3.67;;;;;;;;;;5043815;27;89398;-75
2022/06/14 04:05:23;;;;;;;7.23;4.47;;;;;;;;;;5030202;27;88597;-75
2022/06/14 04:07:53;;;;;;;13.07;4.57;;;;;;;;;;5036490;28;88550;-75
2022/06/14 04:10:27;;;;;;;13.27;4.70;;;;;;;;;;5043435;27;89553;-75
2022/06/14 04:13:02;;;;;;;10.80;5.03;;;;;;;;;;5042923;27;88132;-76
2022/06/14 04:15:36;;;;;;;8.97;4.93;;;;;;;;;;5043965;27;88262;-76
2022/06/14 04:21:07;;;;;;;8.33;4.83;;;;;;;;;;5043593;27;90861;-75
2022/06/14 04:23:40;;;;;;;9.83;5.50;;;;;;;;;;5042644;27;89492;-75
2022/06/14 04:26:16;;;;;;;7.37;4.97;;;;;;;;;;5043299;27;88510;-75
2022/06/14 04:28:49;;;;;;;12.50;4.23;;;;;;;;;;5043567;27;88612;-75
2022/06/14 04:31:21;;;;;;;12.80;4.83;;;;;;;;;;5043176;27;88241;-76
2022/06/14 04:33:51;;;;;;;10.07;4.63;;;;;;;;;;5039735;27;88876;-76
2022/06/14 04:36:24;;;;;;;9.80;4.20;;;;;;;;;;5043909;28;88415;-75
2022/06/14 04:38:56;;;;;;;5.93;3.63;;;;;;;;;;5041862;27;88286;-76
2022/06/14 04:41:40;;;;;;;6.87;3.70;;;;;;;;;;5043848;27;92714;-75
2022/06/14 04:44:10;;;;;;;7.70;4.13;;;;;;;;;;5031071;28;92185;-75
2022/06/14 04:46:45;;;;;;;5.40;3.70;;;;;;;;;;5035316;27;88269;-75
2022/06/14 04:49:15;;;;;;;7.13;3.70;;;;;;;;;;5042916;27;88670;-75
2022/06/14 04:51:48;;;;;;;6.27;3.67;;;;;;;;;;5042964;28;88413;-75
2022/06/14 04:54:18;;;;;;;7.30;3.90;;;;;;;;;;5026900;27;89317;-76
2022/06/14 04:56:53;;;;;;;6.60;4.20;;;;;;;;;;5037373;28;89299;-76
2022/06/14 04:59:29;;;;;;;7.63;4.50;;;;;;;;;;5042162;27;88956;-75
2022/06/14 05:02:06;;;;;;;5.67;3.47;;;;;;;;;;5034377;27;89805;-75
2022/06/14 05:04:46;;;;;;;4.77;3.03;;;;;;;;;;5042312;28;88579;-75
2022/06/14 05:07:17;;;;;;;6.90;2.80;;;;;;;;;;5042574;27;88267;-75
2022/06/14 05:09:53;;;;;;;7.17;3.60;;;;;;;;;;5043379;27;88660;-75
2022/06/14 05:12:27;;;;;;;7.10;3.67;;;;;;;;;;5040491;27;89566;-75
2022/06/14 05:15:01;;;;;;;5.57;2.97;;;;;;;;;;5047516;27;89467;-75
2022/06/14 05:17:35;;;;;;;5.43;3.03;;;;;;;;;;5044611;27;89325;-75
2022/06/14 05:20:14;;;;;;;6.73;3.23;;;;;;;;;;5041798;28;88375;-75
2022/06/14 05:22:46;;;;;;;3.23;2.27;;;;;;;;;;5039495;27;89820;-75
2022/06/14 05:25:15;;;;;;;6.00;2.93;;;;;;;;;;5037676;27;90061;-74
2022/06/14 05:27:49;;;;;;;3.67;2.27;;;;;;;;;;5040770;27;88381;-75
2022/06/14 05:30:24;;;;;;;4.47;2.77;;;;;;;;;;5045139;27;88472;-75
2022/06/14 05:32:54;;;;;;;4.90;2.93;;;;;;;;;;5035364;27;89252;-76
2022/06/14 05:35:36;;;;;;;5.30;2.83;;;;;;;;;;5042513;28;91935;-75
2022/06/14 05:38:19;;;;;;;5.00;2.53;;;;;;;;;;5042964;28;88350;-75
2022/06/14 05:40:56;;;;;;;4.10;2.73;;;;;;;;;;5042939;27;88420;-75
2022/06/14 05:43:30;;;;;;;4.80;2.63;;;;;;;;;;5031485;27;92443;-75
2022/06/14 05:46:03;;;;;;;4.77;3.27;;;;;;;;;;5046175;27;88953;-74
2022/06/14 05:48:37;;;;;;;5.23;3.00;;;;;;;;;;5048346;27;88508;-75
2022/06/14 05:51:09;;;;;;;4.87;3.13;;;;;;;;;;5042028;27;88433;-75
2022/06/14 05:53:41;;;;;;;6.07;3.10;;;;;;;;;;5028137;28;90564;-75
2022/06/14 05:56:12;;;;;;;5.03;3.27;;;;;;;;;;5046880;27;88749;-75
2022/06/14 05:58:42;;;;;;;6.37;3.27;;;;;;;;;;5039992;27;88366;-75
2022/06/14 06:01:14;;;;;;;4.73;3.67;;;;;;;;;;5022451;28;88424;-74
2022/06/14 06:03:48;;;;;;;5.30;2.83;;;;;;;;;;5041138;28;89545;-75
2022/06/14 06:06:18;;;;;;;6.33;3.50;;;;;;;;;;5041109;27;89972;-75
2022/06/14 06:08:52;;;;;;;5.87;3.87;;;;;;;;;;5039342;27;88534;-75
2022/06/14 06:11:27;;;;;;;3.63;2.90;;;;;;;;;;5035273;28;88541;-75
2022/06/14 06:14:00;;;;;;;6.50;3.30;;;;;;;;;;5038575;27;89651;-74
2022/06/14 06:16:33;;;;;;;4.07;3.23;;;;;;;;;;5039915;28;88723;-75
2022/06/14 06:19:03;;;;;;;4.80;3.33;;;;;;;;;;5040287;27;88468;-75
2022/06/14 06:21:34;;;;;;;6.97;3.13;;;;;;;;;;5038790;27;88500;-75
2022/06/14 06:24:07;;;;;;;5.63;3.73;;;;;;;;;;5040431;28;90462;-75
2022/06/14 06:26:40;;;;;;;4.23;3.30;;;;;;;;;;5040645;27;90324;-75
2022/06/14 06:29:11;;;;;;;4.67;3.27;;;;;;;;;;5038510;28;88422;-76
2022/06/14 06:31:40;;;;;;;5.73;3.37;;;;;;;;;;5039570;28;88528;-75
2022/06/14 06:34:13;;;;;;;7.73;3.57;;;;;;;;;;5039485;27;90646;-76
2022/06/14 06:36:51;;;;;;;6.10;3.57;;;;;;;;;;5038095;27;89374;-75
2022/06/14 06:39:28;;;;;;;5.83;3.80;;;;;;;;;;5043505;27;88442;-75
2022/06/14 06:42:04;;;;;;;6.00;4.07;;;;;;;;;;5042502;27;88625;-75
2022/06/14 06:44:39;;;;;;;5.17;3.37;;;;;;;;;;5034955;27;90587;-75
2022/06/14 06:47:12;;;;;;;5.07;3.37;;;;;;;;;;5034344;27;90418;-75
2022/06/14 06:49:58;;;;;;;4.70;3.47;;;;;;;;;;5045208;27;88499;-75
2022/06/14 06:52:27;;;;;;;7.13;4.17;;;;;;;;;;5035028;28;88520;-75
2022/06/14 06:54:57;;;;;;;7.10;3.93;;;;;;;;;;5040253;27;89278;-75
2022/06/14 06:57:29;;;;;;;5.87;3.33;;;;;;;;;;5035229;27;90380;-75
2022/06/14 07:00:00;;;;;;;10.87;3.97;;;;;;;;;;5044408;27;88305;-75
2022/06/14 07:02:37;;;;;;;5.90;3.47;;;;;;;;;;5048811;27;88623;-75
2022/06/14 07:05:14;;;;;;;5.27;3.47;;;;;;;;;;5063863;27;93717;-75
2022/06/14 07:07:48;;;;;;;4.83;3.57;;;;;;;;;;5060640;27;90007;-75
2022/06/14 07:10:19;;;;;;;6.60;3.47;;;;;;;;;;5053975;27;88532;-75
2022/06/14 07:12:50;;;;;;;3.73;3.03;;;;;;;;;;5044923;27;88629;-75
2022/06/14 07:15:27;;;;;;;5.73;3.50;;;;;;;;;;5053850;27;91410;-75
2022/06/14 07:18:00;;;;;;;5.30;3.30;;;;;;;;;;5039506;27;90355;-75
2022/06/14 07:20:36;;;;;;;4.13;2.90;;;;;;;;;;5043400;28;88512;-75
2022/06/14 07:23:06;;;;;;;4.10;3.03;;;;;;;;;;5035805;28;88622;-75
2022/06/14 07:25:38;;;;;;;4.57;3.00;;;;;;;;;;5051646;27;88658;-76
2022/06/14 07:28:07;;;;;;;3.93;2.90;;;;;;;;;;5047598;27;89502;-75
2022/06/14 07:30:37;;;;;;;5.37;3.47;;;;;;;;;;5048624;27;88579;-75
2022/06/14 07:33:09;;;;;;;5.10;3.67;;;;;;;;;;5059504;27;88396;-75
2022/06/14 07:35:44;;;;;;;5.23;3.03;;;;;;;;;;5062878;27;90533;-75
2022/06/14 07:38:14;;;;;;;4.23;2.83;;;;;;;;;;5046707;27;88999;-75
2022/06/14 07:40:57;;;;;;;5.17;2.73;;;;;;;;;;5040524;28;88658;-75
2022/06/14 07:43:29;;;;;;;5.53;2.90;;;;;;;;;;5040626;27;88409;-75
2022/06/14 07:46:04;;;;;;;5.13;3.37;;;;;;;;;;5043127;27;88761;-75
2022/06/14 07:48:34;;;;;;;4.07;2.67;;;;;;;;;;5043297;27;89819;-75
2022/06/14 07:51:07;;;;;;;3.87;3.03;;;;;;;;;;5041517;27;88890;-75
2022/06/14 07:53:37;;;;;;;4.63;3.23;;;;;;;;;;5042068;27;88602;-75
2022/06/14 07:56:11;;;;;;;5.93;3.60;;;;;;;;;;5039419;27;88296;-75
2022/06/14 07:58:43;;;;;;;3.70;2.57;;;;;;;;;;5042355;27;88471;-75
2022/06/14 08:01:14;;;;;;;4.53;2.80;;;;;;;;;;5041246;27;88455;-75
2022/06/14 08:03:44;;;;;;;5.40;3.50;;;;;;;;;;5039786;27;89203;-78
2022/06/14 08:06:16;;;;;;;6.23;3.60;;;;;;;;;;5039737;28;89395;-76
2022/06/14 08:08:49;;;;;;;5.80;3.43;;;;;;;;;;5040427;27;88847;-78
2022/06/14 08:11:20;;;;;;;6.57;2.87;;;;;;;;;;5035351;28;88535;-77
2022/06/14 08:13:50;;;;;;;4.77;3.37;;;;;;;;;;5043297;27;88665;-77
2022/06/14 08:16:20;;;;;;;5.07;3.20;;;;;;;;;;5042696;27;90720;-79
2022/06/14 08:18:52;;;;;;;4.27;3.27;;;;;;;;;;5039327;27;92502;-78
2022/06/14 08:21:25;;;;;;;2.77;2.50;;;;;;;;;;5040899;27;88508;-78
2022/06/14 08:23:57;;;;;;;4.57;2.93;;;;;;;;;;5038748;28;89467;-79
2022/06/14 08:26:26;;;;;;;5.83;3.10;;;;;;;;;;5043281;27;91158;-78
2022/06/14 08:28:58;;;;;;;6.63;3.57;;;;;;;;;;5041330;28;89603;-79
2022/06/14 08:31:28;;;;;;;4.00;3.40;;;;;;;;;;5042898;28;88581;-79
2022/06/14 08:34:00;;;;;;;4.57;2.93;;;;;;;;;;5043011;27;88560;-78
2022/06/14 08:36:31;;;;;;;4.23;3.37;;;;;;;;;;5038782;28;90549;-79
2022/06/14 08:39:02;;;;;;;4.43;3.27;;;;;;;;;;5043358;27;92133;-78
2022/06/14 08:41:44;;;;;;;4.90;3.17;;;;;;;;;;5039578;27;88453;-79
2022/06/14 08:44:15;;;;;;;4.63;2.93;;;;;;;;;;5041910;27;88665;-79
2022/06/14 08:46:50;;;;;;;5.20;3.23;;;;;;;;;;5041455;28;93000;-79
2022/06/14 08:49:26;;;;;;;3.70;2.90;;;;;;;;;;5042740;27;91012;-79
2022/06/14 08:52:03;;;;;;;5.70;2.83;;;;;;;;;;5050099;27;88290;-78
2022/06/14 08:54:44;;;;;;;5.33;3.20;;;;;;;;;;5039545;27;88881;-79
2022/06/14 08:57:17;;;;;;;4.40;2.63;;;;;;;;;;5040353;28;92598;-79
2022/06/14 09:00:08;;;;;;;3.13;2.50;;;;;;;;;;5038730;28;89590;-79
2022/06/14 09:02:55;;;;;;;4.10;2.33;;;;;;;;;;5038255;28;89760;-78
2022/06/14 09:05:41;;;;;;;5.63;2.60;;;;;;;;;;5041020;27;88673;-78
2022/06/14 09:08:23;;;;;;;5.03;2.90;;;;;;;;;;5036744;28;92314;-78
2022/06/14 09:11:07;;;;;;;3.33;2.40;;;;;;;;;;5039426;27;89125;-79
2022/06/14 09:13:43;;;;;;;5.70;2.70;;;;;;;;;;5037099;28;88559;-80
2022/06/14 09:16:32;;;;;;;2.83;2.53;;;;;;;;;;5042387;28;88653;-80
2022/06/14 09:19:03;;;;;;;4.73;2.60;;;;;;;;;;5035019;28;91605;-80
2022/06/14 09:21:44;;;;;;;3.10;2.03;;;;;;;;;;5042156;28;90058;-80
2022/06/14 09:24:17;;;;;;;4.30;2.27;;;;;;;;;;5039644;27;89868;-80
2022/06/14 09:26:50;;;;;;;4.37;2.13;;;;;;;;;;5037535;28;88569;-81
2022/06/14 09:29:47;;;;;;;3.63;2.00;;;;;;;;;;5037571;27;89789;-78
2022/06/14 09:32:32;;;;;;;3.47;2.30;;;;;;;;;;5039167;27;88806;-79
2022/06/14 09:35:04;;;;;;;2.80;1.97;;;;;;;;;;5033564;28;88545;-80
2022/06/14 09:37:54;;;;;;;2.30;1.67;;;;;;;;;;5041184;27;88557;-79
2022/06/14 09:40:38;;;;;;;2.40;1.87;;;;;;;;;;5031862;27;88616;-79
2022/06/14 09:43:11;;;;;;;2.47;1.80;;;;;;;;;;5043073;27;89382;-77
2022/06/14 09:45:57;;;;;;;1.97;1.77;;;;;;;;;;5043271;27;89316;-79
2022/06/14 09:48:44;;;;;;;4.27;2.40;;;;;;;;;;5036809;27;88481;-79
2022/06/14 09:51:34;;;;;;;2.53;2.00;;;;;;;;;;5015335;28;93585;-78
2022/06/14 09:54:30;;;;;;;4.30;1.60;;;;;;;;;;5033021;28;91733;-78
2022/06/14 09:57:15;;;;;;;3.30;1.80;;;;;;;;;;5032690;28;89620;-77
2022/06/14 09:59:55;;;;;;;2.43;2.17;;;;;;;;;;5027968;28;88776;-78
2022/06/14 10:02:29;;;;;;;5.20;1.87;;;;;;;;;;5037455;27;90574;-78
2022/06/14 10:05:01;;;;;;;3.30;1.70;;;;;;;;;;5038648;27;88967;-79
2022/06/14 10:07:55;;;;;;;3.73;2.10;;;;;;;;;;5042154;27;88400;-79
2022/06/14 10:10:32;;;;;;;2.70;1.63;;;;;;;;;;5028503;28;88425;-80
2022/06/14 10:13:09;;;;;;;2.50;1.70;;;;;;;;;;5042819;28;92428;-79
2022/06/14 10:15:42;;;;;;;3.37;1.97;;;;;;;;;;5035661;27;89921;-80
2022/06/14 10:18:16;;;;;;;1.83;1.43;;;;;;;;;;5030023;27;88384;-76
2022/06/14 10:20:55;;;;;;;2.37;1.30;;;;;;;;;;5036259;28;88148;-79
2022/06/14 10:23:50;;;;;;;2.23;1.70;;;;;;;;;;5040358;28;90269;-80
2022/06/14 10:29:27;;;;;;;4.07;1.80;;;;;;;;;;5034167;27;88282;-80
2022/06/14 10:32:05;;;;;;;2.93;1.87;;;;;;;;;;5039415;27;88631;-79
2022/06/14 10:34:36;;;;;;;6.10;1.80;;;;;;;;;;5037998;27;91071;-81
2022/06/14 10:37:19;;;;;;;2.20;1.60;;;;;;;;;;5019707;28;89034;-79
2022/06/14 10:40:03;;;;;;;1.93;1.83;;;;;;;;;;5028015;28;88520;-79
2022/06/14 10:42:36;;;;;;;1.60;1.50;;;;;;;;;;5035505;28;88701;-76
2022/06/14 10:45:09;;;;;;;3.60;1.80;;;;;;;;;;5031879;27;89345;-76
2022/06/14 10:47:56;;;;;;;1.43;1.03;;;;;;;;;;5027321;28;88382;-76
2022/06/14 10:50:33;;;;;;;2.93;1.63;;;;;;;;;;5034227;27;88650;-77
2022/06/14 10:53:06;;;;;;;2.57;1.87;;;;;;;;;;5032513;27;88596;-76
2022/06/14 10:56:10;;;;;;;1.37;1.20;;;;;;;;;;5033674;27;89388;-75
2022/06/14 10:58:56;;;;;;;1.60;1.30;;;;;;;;;;4979032;28;92319;-74
2022/06/14 11:01:39;;;;;;;4.30;1.50;;;;;;;;;;4983564;28;89297;-75
2022/06/14 11:04:13;;;;;;;1.20;1.10;;;;;;;;;;4998263;28;88498;-75
2022/06/14 11:06:50;;;;;;;1.00;1.00;;;;;;;;;;4998235;28;91188;-74
2022/06/14 11:09:25;;;;;;;3.70;1.67;;;;;;;;;;5004078;27;89400;-73
2022/06/14 11:12:07;;;;;;;2.27;1.40;;;;;;;;;;5041275;27;88283;-73
2022/06/14 11:14:39;;;;;;;2.20;1.60;;;;;;;;;;5041192;28;88354;-73
2022/06/14 11:17:15;;;;;;;1.10;1.00;;;;;;;;;;5041241;27;92963;-73
2022/06/14 11:20:08;;;;;;;1.40;1.30;;;;;;;;;;5039515;27;89377;-73
2022/06/14 11:22:39;;;;;;;1.80;1.13;;;;;;;;;;5031401;27;88431;-73
2022/06/14 11:25:23;;;;;;;3.47;1.57;;;;;;;;;;5041103;28;88612;-73
2022/06/14 11:27:56;;;;;;;1.97;1.27;;;;;;;;;;5040990;27;91377;-73
2022/06/14 11:30:30;;;;;;;1.33;0.93;;;;;;;;;;5035614;27;88725;-73
2022/06/14 11:33:07;;;;;;;2.63;1.27;;;;;;;;;;5040649;27;88587;-74
2022/06/14 11:35:40;;;;;;;1.53;1.10;;;;;;;;;;5032803;27;88510;-73
2022/06/14 11:38:25;;;;;;;1.37;1.00;;;;;;;;;;5041280;28;90198;-73
2022/06/14 11:40:54;;;;;;;2.33;1.60;;;;;;;;;;5039724;28;88698;-74
2022/06/14 11:43:26;;;;;;;3.27;1.43;;;;;;;;;;5040878;27;88360;-73
2022/06/14 11:45:57;;;;;;;1.57;1.03;;;;;;;;;;5040103;27;88687;-73
2022/06/14 11:48:27;;;;;;;2.30;0.90;;;;;;;;;;5040410;27;89379;-74
2022/06/14 11:50:57;;;;;;;3.07;0.93;;;;;;;;;;5032791;27;89979;-73
2022/06/14 11:53:44;;;;;;;3.03;0.90;;;;;;;;;;5043769;27;88424;-73
2022/06/14 11:56:17;;;;;;;3.67;1.20;;;;;;;;;;5043746;27;88622;-73
2022/06/14 11:58:50;;;;;;;2.07;1.37;;;;;;;;;;5043585;27;89484;-73
2022/06/14 12:01:20;;;;;;;1.10;1.00;;;;;;;;;;5042541;28;90037;-73
2022/06/14 12:04:07;;;;;;;0.90;0.83;;;;;;;;;;5043603;28;89082;-73
2022/06/14 12:06:42;;;;;;;8.07;1.73;;;;;;;;;;5043424;27;88675;-73
2022/06/14 12:09:17;;;;;;;1.70;1.10;;;;;;;;;;5042797;27;91823;-73
2022/06/14 12:11:49;;;;;;;3.03;1.20;;;;;;;;;;5042296;28;89380;-73
2022/06/14 12:14:35;;;;;;;1.20;1.10;;;;;;;;;;5043926;27;88402;-73
2022/06/14 12:17:12;;;;;;;1.43;0.90;;;;;;;;;;5043377;27;88362;-73
2022/06/14 12:19:41;;;;;;;1.00;0.90;;;;;;;;;;5034853;27;89955;-73
2022/06/14 12:22:31;;;;;;;5.10;1.30;;;;;;;;;;5022437;28;89122;-72
2022/06/14 12:27:56;;;;;;;2.07;0.97;;;;;;;;;;4986309;27;88686;-73
2022/06/14 12:30:24;;;;;;;1.33;1.03;;;;;;;;;;5042428;27;89580;-73
2022/06/14 12:33:07;;;;;;;2.27;1.30;;;;;;;;;;5036463;27;88824;-72
2022/06/14 12:35:41;;;;;;;1.40;1.30;;;;;;;;;;5035289;28;88568;-73
2022/06/14 12:38:17;;;;;;;1.20;1.10;;;;;;;;;;5043339;27;88565;-72
2022/06/14 12:40:49;;;;;;;2.60;0.93;;;;;;;;;;5039295;27;90737;-73
2022/06/14 12:43:20;;;;;;;1.93;1.10;;;;;;;;;;5043712;27;90062;-73
2022/06/14 12:45:54;;;;;;;1.43;1.00;;;;;;;;;;5063745;27;88409;-73
2022/06/14 12:48:29;;;;;;;1.03;1.00;;;;;;;;;;5044793;27;88542;-73
2022/06/14 12:50:58;;;;;;;3.30;1.07;;;;;;;;;;5024130;27;90889;-73
2022/06/14 12:53:35;;;;;;;2.43;1.10;;;;;;;;;;5022877;28;90120;-73
2022/06/14 12:56:08;;;;;;;0.73;0.73;;;;;;;;;;5023130;28;88192;-72
2022/06/14 12:58:46;;;;;;;2.20;1.00;;;;;;;;;;5043138;27;88535;-73
2022/06/14 13:01:22;;;;;;;2.03;1.03;;;;;;;;;;5038698;27;89330;-73
2022/06/14 13:03:58;;;;;;;3.23;1.10;;;;;;;;;;5043160;27;88697;-73
2022/06/14 13:06:39;;;;;;;5.33;1.33;;;;;;;;;;5042935;27;89112;-73
2022/06/14 13:09:10;;;;;;;1.03;0.90;;;;;;;;;;5041590;27;88619;-73
2022/06/14 13:11:55;;;;;;;1.23;0.80;;;;;;;;;;5042925;27;89379;-73
2022/06/14 13:14:30;;;;;;;0.77;0.70;;;;;;;;;;5042476;27;88899;-72
2022/06/14 13:17:07;;;;;;;1.10;1.00;;;;;;;;;;5042782;27;88307;-73
2022/06/14 13:19:43;;;;;;;1.20;1.07;;;;;;;;;;5040649;27;88558;-73
2022/06/14 13:22:27;;;;;;;0.80;0.80;;;;;;;;;;5041460;27;90224;-71
2022/06/14 13:28:35;;;;;;;0.97;0.90;;;;;;;;;;5020048;28;88272;-73
2022/06/14 13:31:50;;;;;;;5.53;1.03;;;;;;;;;;5040315;27;88786;-73
2022/06/14 13:34:26;;;;;;;1.40;1.30;;;;;;;;;;4997001;28;90078;-73
2022/06/14 13:37:02;;;;;;;0.90;0.90;;;;;;;;;;4996685;28;88768;-72
2022/06/14 13:39:35;;;;;;;1.17;1.07;;;;;;;;;;4999472;28;88534;-73
2022/06/14 13:42:11;;;;;;;0.97;0.80;;;;;;;;;;4998479;28;88725;-73
2022/06/14 13:44:42;;;;;;;1.10;0.73;;;;;;;;;;4998084;28;89697;-73
2022/06/14 13:47:14;;;;;;;2.10;1.23;;;;;;;;;;4998709;28;88999;-73
2022/06/14 13:49:45;;;;;;;2.57;1.13;;;;;;;;;;4998418;28;88622;-73
2022/06/14 13:52:22;;;;;;;0.97;0.80;;;;;;;;;;4980123;28;89965;-71
2022/06/14 13:54:53;;;;;;;1.10;1.00;;;;;;;;;;4995968;28;90833;-73
2022/06/14 13:57:26;;;;;;;1.93;1.37;;;;;;;;;;4997888;28;88593;-73
2022/06/14 13:59:55;;;;;;;1.20;1.10;;;;;;;;;;4993741;28;88678;-72
2022/06/14 14:02:25;;;;;;;4.20;0.93;;;;;;;;;;4995458;28;88822;-75
2022/06/14 14:04:58;;;;;;;1.03;0.90;;;;;;;;;;4992885;27;89557;-74
2022/06/14 14:07:27;;;;;;;1.47;1.03;;;;;;;;;;5060615;27;91803;-73
2022/06/14 14:10:10;;;;;;;1.10;1.00;;;;;;;;;;5058566;27;88519;-73
2022/06/14 14:12:40;;;;;;;3.20;1.10;;;;;;;;;;5040682;28;88543;-74
2022/06/14 14:15:18;;;;;;;0.93;0.90;;;;;;;;;;5035755;28;90067;-73
2022/06/14 14:17:47;;;;;;;3.63;1.20;;;;;;;;;;5040834;27;92514;-73
2022/06/14 14:20:33;;;;;;;1.13;1.03;;;;;;;;;;5039679;27;88563;-73
2022/06/14 14:23:05;;;;;;;2.23;0.90;;;;;;;;;;5040624;27;88594;-73
2022/06/14 14:25:33;;;;;;;1.13;0.97;;;;;;;;;;5040963;28;90617;-74
2022/06/14 14:28:04;;;;;;;1.33;0.70;;;;;;;;;;5041430;27;88756;-73
2022/06/14 14:30:46;;;;;;;2.13;1.23;;;;;;;;;;5041425;27;88237;-74
2022/06/14 14:33:15;;;;;;;0.73;0.70;;;;;;;;;;5041689;27;88610;-75
2022/06/14 14:35:47;;;;;;;1.43;0.83;;;;;;;;;;5041039;27;90707;-74
2022/06/14 14:38:17;;;;;;;1.83;1.10;;;;;;;;;;5041247;28;90051;-73
2022/06/14 14:43:30;;;;;;;2.53;1.27;;;;;;;;;;5020138;28;88344;-74
2022/06/14 14:46:04;;;;;;;1.40;1.30;;;;;;;;;;5020790;28;89518;-74
2022/06/14 14:48:36;;;;;;;1.33;1.23;;;;;;;;;;5020876;28;89957;-73
2022/06/14 14:51:09;;;;;;;3.37;1.30;;;;;;;;;;5029008;28;88504;-74
2022/06/14 14:53:43;;;;;;;1.27;1.17;;;;;;;;;;5022597;27;88352;-75
2022/06/14 14:56:15;;;;;;;2.27;1.47;;;;;;;;;;5020575;28;89657;-74
2022/06/14 14:58:47;;;;;;;1.53;1.43;;;;;;;;;;5020826;28;88679;-74
2022/06/14 15:07:08;;;;;;;1.70;1.27;;;;;;;;;;5041019;27;92952;-74
2022/06/14 15:09:37;;;;;;;1.87;1.20;;;;;;;;;;5039007;27;89310;-73
2022/06/14 15:12:16;;;;;;;1.30;1.20;;;;;;;;;;5042818;27;88588;-74
2022/06/14 15:14:54;;;;;;;3.30;1.70;;;;;;;;;;5039301;28;88257;-74
2022/06/14 15:20:10;;;;;;;1.90;1.20;;;;;;;;;;5038604;27;91129;-73
2022/06/14 15:22:46;;;;;;;2.37;1.53;;;;;;;;;;5036852;28;88592;-74
2022/06/14 15:25:21;;;;;;;3.30;1.50;;;;;;;;;;5042392;27;88412;-73
2022/06/14 15:27:51;;;;;;;1.30;1.10;;;;;;;;;;5044119;27;90311;-74
2022/06/14 15:30:34;;;;;;;5.33;1.47;;;;;;;;;;5043093;27;89243;-75
2022/06/14 15:33:06;;;;;;;1.97;1.43;;;;;;;;;;5042548;28;88542;-74
2022/06/14 15:35:36;;;;;;;2.50;1.30;;;;;;;;;;5041695;28;88465;-73
2022/06/14 15:38:09;;;;;;;3.23;1.47;;;;;;;;;;5060521;27;90133;-74
2022/06/14 15:40:41;;;;;;;1.20;1.10;;;;;;;;;;5046608;27;89021;-75
2022/06/14 15:43:25;;;;;;;5.60;1.40;;;;;;;;;;5043086;27;88504;-73
2022/06/14 15:45:54;;;;;;;1.97;1.37;;;;;;;;;;5043863;27;88623;-73
2022/06/14 15:48:26;;;;;;;1.67;1.43;;;;;;;;;;5042524;27;88375;-74
2022/06/14 15:50:55;;;;;;;2.87;0.93;;;;;;;;;;5042173;27;89194;-73
2022/06/14 15:53:28;;;;;;;2.97;1.23;;;;;;;;;;5043051;27;88561;-74
2022/06/14 15:55:57;;;;;;;1.87;1.37;;;;;;;;;;5048246;27;88562;-73
2022/06/14 15:58:43;;;;;;;1.70;1.13;;;;;;;;;;5060213;27;90694;-73
2022/06/14 16:01:17;;;;;;;2.60;1.30;;;;;;;;;;5060739;27;91020;-73
2022/06/14 16:03:52;;;;;;;2.03;1.17;;;;;;;;;;5058936;27;88662;-74